Time;durP1;ratioP1;P1;durP2;ratioP2;P2;SDS_P1;SDS_P2;PMS_P1;PMS_P2;Temp;Humidity;BMP_temperature;BMP_pressure;BME280_temperature;BME280_humidity;BME280_pressure;Samples;Min_cycle;Max_cycle;Signal;HPM_P1;HPM_P2
2024/01/01 00:01:55;852584.00;2.84;1472.99;0.00;0.00;0.62;;;;;13.00;1.00;;;;;;2282273;61;1378;-90
2024/01/01 00:04:23;441096.00;1.47;760.47;13625.00;0.05;24.23;;;;;13.00;1.00;;;;;;2280302;61;2001;-88
2024/01/01 00:06:50;609475.00;2.03;1050.58;18789.00;0.06;33.17;;;;;13.00;1.00;;;;;;2280332;61;1066;-90
2024/01/01 00:11:48;1393649.00;4.65;2444.55;117291.00;0.39;203.41;;;;;13.10;1.00;;;;;;2281855;61;1418;-87
2024/01/01 00:14:15;120453704.00;401.51;70797728.00;30207.00;0.10;52.94;;;;;13.40;1.00;;;;;;2280192;61;1594;-89
2024/01/01 00:19:12;597321.00;1.99;1029.59;94841.00;0.32;164.67;;;;;13.60;1.00;;;;;;2276535;61;1479;-89
2024/01/01 00:21:39;568342.00;1.89;979.59;48859.00;0.16;85.21;;;;;13.60;1.00;;;;;;2272218;61;1652;-90
2024/01/01 00:24:06;440109.00;1.47;758.77;0.00;0.00;0.62;;;;;13.70;1.00;;;;;;2272193;61;2004;-91
2024/01/01 00:26:34;243112.00;0.81;420.10;9013.00;0.03;16.24;;;;;13.80;1.00;;;;;;2272088;61;1427;-89
2024/01/01 00:34:06;502089.00;1.67;865.42;97757.00;0.33;169.70;;;;;13.40;1.00;;;;;;2277863;61;1333;-89
2024/01/01 00:36:33;519734.00;1.73;895.81;113248.00;0.38;196.43;;;;;13.40;1.00;;;;;;2276137;61;1711;-88
2024/01/01 00:39:00;613274.00;2.04;1057.15;92731.00;0.31;161.02;;;;;13.30;1.00;;;;;;2274985;61;1361;-89
2024/01/01 00:41:28;457478.00;1.52;788.65;98540.00;0.33;171.05;;;;;13.60;1.00;;;;;;2272249;61;1138;-88
2024/01/01 00:43:55;731423.00;2.44;1261.77;80107.00;0.27;139.22;;;;;13.70;1.00;;;;;;2272097;61;2208;-87
2024/01/01 00:46:22;447554.00;1.49;771.58;80977.00;0.27;140.72;;;;;13.40;1.00;;;;;;2272170;61;1043;-87
2024/01/01 00:48:49;551458.00;1.84;950.47;0.00;0.00;0.62;;;;;13.40;1.00;;;;;;2272013;61;1297;-88
2024/01/01 00:51:17;260406.00;0.87;449.85;300.00;0.00;1.14;;;;;13.10;1.00;;;;;;2272146;61;1532;-87
2024/01/01 00:53:44;336430.00;1.12;580.54;85598.00;0.29;148.71;;;;;13.00;1.00;;;;;;2272089;61;1596;-89
2024/01/01 00:56:11;743875.00;2.48;1283.41;139050.00;0.46;240.93;;;;;13.00;1.00;;;;;;2272046;61;1719;-89
2024/01/01 00:58:38;655400.00;2.18;1129.98;135900.00;0.45;235.50;;;;;13.00;1.00;;;;;;2271823;61;1571;-90
2024/01/01 01:01:05;424276.00;1.41;731.54;89118.00;0.30;154.78;;;;;13.10;1.00;;;;;;2272192;61;927;-88
2024/01/01 01:03:34;392331.00;1.31;676.62;132938.00;0.44;230.40;;;;;13.20;1.00;;;;;;2272160;61;1997;-87
2024/01/01 01:06:01;521821.00;1.74;899.40;89039.00;0.30;154.65;;;;;13.40;1.00;;;;;;2272157;61;1165;-89
2024/01/01 01:08:29;401014.00;1.34;691.55;115566.00;0.39;200.43;;;;;13.50;1.00;;;;;;2271957;61;1363;-89
2024/01/01 01:10:56;429836.00;1.43;741.10;106174.00;0.35;184.23;;;;;13.50;1.00;;;;;;2272156;61;978;-87
2024/01/01 01:13:23;647889.00;2.16;1116.98;90082.00;0.30;156.45;;;;;13.60;1.00;;;;;;2272029;61;1956;-90
2024/01/01 01:15:50;411865.00;1.37;710.20;102049.00;0.34;177.11;;;;;13.50;1.00;;;;;;2272019;61;1515;-89
2024/01/01 01:18:17;590565.00;1.97;1017.93;180074.00;0.60;311.62;;;;;13.40;1.00;;;;;;2271895;61;1769;-88
2024/01/01 01:20:44;370720.00;1.24;639.47;84016.00;0.28;145.97;;;;;13.40;1.00;;;;;;2272096;61;927;-90
2024/01/01 01:23:11;442176.00;1.47;762.33;114947.00;0.38;199.37;;;;;13.60;1.00;;;;;;2272108;61;1047;-90
2024/01/01 01:25:39;317188.00;1.06;547.46;76701.00;0.26;133.34;;;;;13.60;1.00;;;;;;2272087;61;2009;-90
2024/01/01 01:28:06;603160.00;2.01;1039.68;117856.00;0.39;204.38;;;;;13.80;1.00;;;;;;2271974;61;1052;-89
2024/01/01 01:30:33;486902.00;1.62;839.28;90451.00;0.30;157.09;;;;;13.90;1.00;;;;;;2271867;61;1385;-89
2024/01/01 01:33:00;460766.00;1.54;794.30;85770.00;0.29;149.00;;;;;13.80;1.00;;;;;;2271846;61;1451;-89
2024/01/01 01:35:27;338551.00;1.13;584.18;76673.00;0.26;133.29;;;;;14.00;1.00;;;;;;2271930;61;938;-88
2024/01/01 01:37:54;398174.00;1.33;686.67;84122.00;0.28;146.16;;;;;14.10;1.00;;;;;;2271954;61;1677;-90
2024/01/01 01:40:22;362740.00;1.21;625.76;127479.00;0.42;220.98;;;;;14.10;1.00;;;;;;2271905;61;1309;-89
2024/01/01 01:42:50;395160.00;1.32;681.48;79305.00;0.26;137.84;;;;;14.10;1.00;;;;;;2271832;61;1761;-90
2024/01/01 01:45:18;171961.00;0.57;297.64;91074.00;0.30;158.16;;;;;14.10;1.00;;;;;;2271999;61;2004;-88
2024/01/01 01:47:45;326459.00;1.09;563.40;83320.00;0.28;144.77;;;;;13.80;1.00;;;;;;2271997;61;980;-86
2024/01/01 01:50:12;441181.00;1.47;760.61;90012.00;0.30;156.33;;;;;13.20;1.00;;;;;;2271765;61;1292;-88
2024/01/01 01:55:09;566502.00;1.89;976.41;84503.00;0.28;146.81;;;;;12.50;1.00;;;;;;2277944;61;1390;-89
2024/01/01 01:57:38;286180.00;0.95;494.16;98111.00;0.33;170.31;;;;;12.10;1.00;;;;;;2277578;55;1446339;-90
2024/01/01 02:00:08;310228.00;1.03;535.50;97311.00;0.32;168.93;;;;;10.90;1.00;;;;;;2271421;61;1338;-89
2024/01/01 02:02:36;292713.00;0.98;505.39;128725.00;0.43;223.13;;;;;10.00;1.00;;;;;;2271882;61;1626;-89
2024/01/01 02:07:33;614833.00;2.05;1059.84;72638.00;0.24;126.32;;;;;9.40;1.00;;;;;;2297432;40;3513;31
2024/01/01 02:14:56;558262.00;1.86;962.20;91397.00;0.30;158.72;;;;;10.00;1.00;;;;;;2282562;61;1422;-88
2024/01/01 02:17:24;26891.00;0.09;47.20;0.00;0.00;0.62;;;;;10.10;1.00;;;;;;2280735;61;1015;-90
2024/01/01 02:24:55;631288.00;2.10;1088.28;161165.00;0.54;279.05;;;;;9.80;1.00;;;;;;2278375;61;1894;-89
2024/01/01 02:27:22;345480.00;1.15;596.09;103864.00;0.35;180.24;;;;;9.60;1.00;;;;;;2276436;61;1127;-88
2024/01/01 02:34:48;746278.00;2.49;1287.59;121048.00;0.40;209.89;;;;;9.50;1.00;;;;;;2296811;40;3516;-89
2024/01/01 02:37:15;576764.00;1.92;994.12;127099.00;0.42;220.33;;;;;9.50;1.00;;;;;;2276590;61;1034;-88
2024/01/01 02:42:13;525301.00;1.75;905.40;88735.00;0.30;154.12;;;;;9.80;1.00;;;;;;2295105;55;3666;-88
2024/01/01 02:47:07;542023.00;1.81;934.21;86763.00;0.29;150.72;;;;;10.30;1.00;;;;;;2282315;61;1339;-89
2024/01/01 02:49:34;550045.00;1.83;948.04;95864.00;0.32;166.43;;;;;10.40;1.00;;;;;;2278238;61;1525;-89
2024/01/01 02:54:30;378288.00;1.26;652.48;99512.00;0.33;172.73;;;;;11.00;1.00;;;;;;2282637;61;1403;-86
2024/01/01 02:59:33;494219.00;1.65;851.87;125002.00;0.42;216.71;;;;;11.40;1.00;;;;;;2275854;61;1404;-89
2024/01/01 03:04:30;639708.00;2.13;1102.83;90088.00;0.30;156.46;;;;;11.80;1.00;;;;;;2278036;61;1903;-87
2024/01/01 03:06:57;575453.00;1.92;991.85;72493.00;0.24;126.07;;;;;11.50;1.00;;;;;;2283147;56;3727;-87
2024/01/01 03:09:24;619301.00;2.06;1067.56;87562.00;0.29;152.10;;;;;11.50;1.00;;;;;;2277094;61;1863;-85
2024/01/01 03:11:51;408611.00;1.36;704.61;88591.00;0.30;153.87;;;;;11.60;1.00;;;;;;2277220;61;1193;-88
2024/01/01 03:14:18;592193.00;1.97;1020.74;84933.00;0.28;147.56;;;;;11.50;1.00;;;;;;2276279;61;1031;-88
2024/01/01 03:19:20;501359.00;1.67;864.16;84700.00;0.28;147.16;;;;;11.80;1.00;;;;;;2280126;61;1427;-89
2024/01/01 03:41:40;956796.00;3.19;1656.10;14118.00;0.05;25.08;;;;;11.00;1.00;;;;;;2318905;55;3654;-86
2024/01/01 03:44:10;548601.00;1.83;945.55;0.00;0.00;0.62;;;;;10.60;1.00;;;;;;2272437;61;2015;-86
2024/01/01 03:49:05;710064.00;2.37;1224.70;0.00;0.00;0.62;;;;;9.40;1.00;;;;;;2276337;61;1412;-89
2024/01/01 03:51:32;384981.00;1.28;663.99;0.00;0.00;0.62;;;;;9.50;1.00;;;;;;2272328;61;1087;-89
2024/01/01 03:53:59;364196.00;1.21;628.26;0.00;0.00;0.62;;;;;9.50;1.00;;;;;;2272221;61;1544;-87
2024/01/01 03:56:26;652856.00;2.18;1125.58;2167.00;0.01;4.38;;;;;9.20;1.00;;;;;;2272440;61;1231;-86
2024/01/01 03:58:54;470409.00;1.57;810.89;0.00;0.00;0.62;;;;;9.20;1.00;;;;;;2272390;61;1376;-88
2024/01/01 04:01:21;268699.00;0.90;464.11;0.00;0.00;0.62;;;;;9.00;1.00;;;;;;2272342;61;947;-87
2024/01/01 04:03:48;715217.00;2.38;1233.64;23225.00;0.08;40.85;;;;;9.10;1.00;;;;;;2272358;61;1651;-89
2024/01/01 04:08:43;1103560.00;3.68;1916.79;26550.00;0.09;46.61;;;;;9.30;1.00;;;;;;2281642;61;1422;-87
2024/01/01 04:11:10;612438.00;2.04;1055.70;0.00;0.00;0.62;;;;;9.40;1.00;;;;;;2276394;61;1037;-89
2024/01/01 04:13:37;513195.00;1.71;884.54;0.00;0.00;0.62;;;;;9.40;1.00;;;;;;2276098;61;1038;-89
2024/01/01 04:18:34;1822672.00;6.08;3266.34;156854.00;0.52;271.62;;;;;9.70;1.00;;;;;;2330199;55;3582;-88
2024/01/01 04:21:01;624077.00;2.08;1075.81;18887.00;0.06;33.34;;;;;9.60;1.00;;;;;;2276281;61;1418;-89
2024/01/01 04:23:28;399336.00;1.33;688.66;0.00;0.00;0.62;;;;;9.50;1.00;;;;;;2276385;61;1028;-88
2024/01/01 04:30:51;690214.00;2.30;1190.27;0.00;0.00;0.62;;;;;9.00;1.00;;;;;;2282319;61;1403;-88
2024/01/01 04:33:19;422430.00;1.41;728.37;0.00;0.00;0.62;;;;;8.80;1.00;;;;;;2280400;61;1141;-90
2024/01/01 04:35:47;459605.00;1.53;792.31;0.00;0.00;0.62;;;;;9.00;1.00;;;;;;2280227;61;1749;-88
2024/01/01 04:38:14;325308.00;1.08;561.42;0.00;0.00;0.62;;;;;9.40;1.00;;;;;;2280355;61;1091;-89
2024/01/01 04:40:41;661283.00;2.20;1140.16;0.00;0.00;0.62;;;;;9.20;1.00;;;;;;2276257;61;1372;-88
2024/01/01 04:43:08;362435.00;1.21;625.23;0.00;0.00;0.62;;;;;9.10;1.00;;;;;;2276210;61;1053;-89
2024/01/01 04:48:05;457102.00;1.52;788.00;11868.00;0.04;21.19;;;;;9.00;1.00;;;;;;2282311;39;3503;-87
2024/01/01 04:53:01;565308.00;1.88;974.35;0.00;0.00;0.62;;;;;8.90;1.00;;;;;;2282372;61;1412;-89
2024/01/01 04:55:28;400710.00;1.34;691.03;0.00;0.00;0.62;;;;;9.30;1.00;;;;;;2280228;61;992;-88
2024/01/01 04:57:55;427022.00;1.42;736.26;8029.00;0.03;14.53;;;;;9.30;1.00;;;;;;2280389;61;1140;-88
2024/01/01 05:00:22;614334.00;2.05;1058.98;0.00;0.00;0.62;;;;;9.30;1.00;;;;;;2279076;39;3645;-89
2024/01/01 05:05:17;884862.00;2.95;1529.55;0.00;0.00;0.62;;;;;9.10;1.00;;;;;;2282043;61;1968;-90
2024/01/01 05:10:13;703969.00;2.35;1214.12;13708.00;0.05;24.37;;;;;9.00;1.00;;;;;;2278282;61;1410;-87
2024/01/01 05:12:40;525640.00;1.75;905.98;21086.00;0.07;37.15;;;;;9.20;1.00;;;;;;2298654;56;3760;-86
2024/01/01 05:15:08;174469.00;0.58;301.96;0.00;0.00;0.62;;;;;9.40;1.00;;;;;;2275901;61;1024;-88
2024/01/01 05:20:05;559053.00;1.86;963.57;0.00;0.00;0.62;;;;;9.50;1.00;;;;;;2275560;61;1395;-88
2024/01/01 05:22:32;358990.00;1.20;619.31;0.00;0.00;0.62;;;;;9.30;1.00;;;;;;2272722;61;1060;-88
2024/01/01 05:29:58;288839.00;0.96;498.73;0.00;0.00;0.62;;;;;9.00;1.00;;;;;;2278976;61;1379;-89
2024/01/01 05:32:25;0.00;0.00;0.62;0.00;0.00;0.62;;;;;9.40;1.00;;;;;;2276179;61;1046;-87
2024/01/01 05:34:52;177682.00;0.59;307.50;147.00;0.00;0.87;;;;;9.30;1.00;;;;;;2276068;61;1027;-90
2024/01/01 05:39:53;279362.00;0.93;482.44;0.00;0.00;0.62;;;;;9.40;1.00;;;;;;2285314;55;3684;-89
2024/01/01 05:42:19;150652.00;0.50;260.93;0.00;0.00;0.62;;;;;9.70;1.00;;;;;;2275938;61;1066;-87
2024/01/01 05:44:46;269826.00;0.90;466.04;0.00;0.00;0.62;;;;;9.50;1.00;;;;;;2277829;55;3759;-86
2024/01/01 05:54:45;150683.00;0.50;260.98;0.00;0.00;0.62;;;;;9.30;1.00;;;;;;2282501;61;1272;-88
2024/01/01 05:57:12;169627.00;0.57;293.62;26487.00;0.09;46.50;;;;;9.20;1.00;;;;;;2280831;61;942;-89
2024/01/01 06:02:09;341124.00;1.14;588.61;0.00;0.00;0.62;;;;;9.50;1.00;;;;;;2280217;55;3680;-88
2024/01/01 06:09:31;116950.00;0.39;202.82;0.00;0.00;0.62;;;;;9.40;1.00;;;;;;2276112;61;1371;-88
2024/01/01 06:11:59;135100.00;0.45;234.12;0.00;0.00;0.62;;;;;9.50;1.00;;;;;;2272410;61;1587;-88
2024/01/01 06:14:26;172965.00;0.58;299.37;0.00;0.00;0.62;;;;;9.40;1.00;;;;;;2272551;61;970;-87
2024/01/01 06:16:53;83183.00;0.28;144.54;0.00;0.00;0.62;;;;;9.80;1.00;;;;;;2272626;61;1131;-88
2024/01/01 06:19:20;304198.00;1.01;525.14;0.00;0.00;0.62;;;;;9.70;1.00;;;;;;2303294;56;3760;-86
2024/01/01 06:24:20;298927.00;1.00;516.08;0.00;0.00;0.62;;;;;9.50;1.00;;;;;;2287064;40;3493;-85
2024/01/01 06:26:47;201140.00;0.67;347.89;0.00;0.00;0.62;;;;;9.70;1.00;;;;;;2275933;61;1989;-87
2024/01/01 06:29:16;109233.00;0.36;189.51;0.00;0.00;0.62;;;;;9.90;1.00;;;;;;2284066;40;3782;-89
2024/01/01 06:34:10;408188.00;1.36;703.88;0.00;0.00;0.62;;;;;9.90;1.00;;;;;;2283353;61;1304;-87
2024/01/01 06:41:33;254288.00;0.85;439.33;0.00;0.00;0.62;;;;;10.20;1.00;;;;;;2282698;61;1391;-89
2024/01/01 06:44:00;140808.00;0.47;243.96;0.00;0.00;0.62;;;;;10.00;1.00;;;;;;2282350;55;3727;-88
2024/01/01 06:46:30;50142.00;0.17;87.43;0.00;0.00;0.62;;;;;10.10;1.00;;;;;;2277339;61;1996;-88
2024/01/01 06:49:01;243616.00;0.81;420.97;0.00;0.00;0.62;;;;;10.10;1.00;;;;;;2297805;40;3631;-85
2024/01/01 06:51:28;132692.00;0.44;229.97;0.00;0.00;0.62;;;;;10.00;1.00;;;;;;2294541;55;3707;-87
2024/01/01 06:53:55;173090.00;0.58;299.59;0.00;0.00;0.62;;;;;9.80;1.00;;;;;;2276615;61;1747;-87
2024/01/01 06:56:22;199875.00;0.67;345.71;41961.00;0.14;73.28;;;;;9.80;1.00;;;;;;2276610;61;1038;-87
2024/01/01 06:58:49;361768.00;1.21;624.09;45899.00;0.15;80.09;;;;;10.10;1.00;;;;;;2276474;61;1372;-91
2024/01/01 07:01:16;13254.00;0.04;23.59;0.00;0.00;0.62;;;;;10.20;1.00;;;;;;2276552;61;1580;-90
2024/01/01 07:06:15;755110.00;2.52;1302.94;0.00;0.00;0.62;;;;;9.90;1.00;;;;;;2281941;61;1899;-87
2024/01/01 07:11:10;285864.00;0.95;493.62;0.00;0.00;0.62;;;;;9.80;1.00;;;;;;2282071;61;1398;-88
2024/01/01 07:13:37;99186.00;0.33;172.17;0.00;0.00;0.62;;;;;10.00;1.00;;;;;;2280487;61;1592;-88
2024/01/01 07:16:04;241088.00;0.80;416.62;0.00;0.00;0.62;;;;;10.10;1.00;;;;;;2280509;61;1243;-86
2024/01/01 07:18:31;3021.00;0.01;5.86;0.00;0.00;0.62;;;;;10.00;1.00;;;;;;2280153;61;1400;-88
2024/01/01 07:20:58;177289.00;0.59;306.82;0.00;0.00;0.62;;;;;9.70;1.00;;;;;;2278311;55;3770;-87
2024/01/01 07:25:54;204104.00;0.68;352.99;0.00;0.00;0.62;;;;;9.20;1.00;;;;;;2282278;61;1980;-87
2024/01/01 07:30:53;1032947.00;3.44;1790.91;44939.00;0.15;78.43;;;;;9.80;1.00;;;;;;2283124;61;1327;-90
2024/01/01 07:33:20;429882.00;1.43;741.18;0.00;0.00;0.62;;;;;10.00;1.00;;;;;;2280569;61;1581;-87
2024/01/01 07:35:47;113638.00;0.38;197.11;19601.00;0.07;34.58;;;;;10.20;1.00;;;;;;2280487;61;1102;-87
2024/01/01 07:38:14;131667.00;0.44;228.20;0.00;0.00;0.62;;;;;10.30;1.00;;;;;;2280473;61;1137;-88
2024/01/01 07:40:41;143958.00;0.48;249.39;18503.00;0.06;32.68;;;;;9.80;1.00;;;;;;2276479;61;1375;-87
2024/01/01 07:43:10;240991.00;0.80;416.46;0.00;0.00;0.62;;;;;9.80;1.00;;;;;;2276308;61;981;-87
2024/01/01 07:45:36;78768.00;0.26;136.91;0.00;0.00;0.62;;;;;9.60;1.00;;;;;;2276339;61;1919;-87
2024/01/01 07:48:05;116388.00;0.39;201.85;0.00;0.00;0.62;;;;;10.00;1.00;;;;;;2288778;55;3768;-87
2024/01/01 07:53:05;149626.00;0.50;259.16;0.00;0.00;0.62;;;;;9.80;1.00;;;;;;2282074;61;1406;-86
2024/01/01 07:55:31;444825.00;1.48;766.88;67553.00;0.23;117.53;;;;;9.60;1.00;;;;;;2280449;61;2497;-88
2024/01/01 08:00:29;257940.00;0.86;445.61;0.00;0.00;0.62;;;;;9.40;1.00;;;;;;2285521;55;3716;-88
2024/01/01 08:02:56;157468.00;0.52;272.68;0.00;0.00;0.62;;;;;9.70;1.00;;;;;;2278661;39;3763;-88
2024/01/01 08:05:23;88575.00;0.30;153.85;0.00;0.00;0.62;;;;;9.60;1.00;;;;;;2276401;61;1915;-89
2024/01/01 08:07:50;177031.00;0.59;306.38;0.00;0.00;0.62;;;;;9.50;1.00;;;;;;2276286;61;2214;-89
2024/01/01 08:12:45;236991.00;0.79;409.58;0.00;0.00;0.62;;;;;9.40;1.00;;;;;;2282294;61;1391;-89
2024/01/01 08:15:11;162212.00;0.54;280.85;0.00;0.00;0.62;;;;;9.40;1.00;;;;;;2299615;55;3761;-89
2024/01/01 08:20:10;433385.00;1.44;747.21;0.00;0.00;0.62;;;;;9.60;1.00;;;;;;2278697;61;1338;-86
2024/01/01 08:22:37;189271.00;0.63;327.45;48407.00;0.16;84.43;;;;;9.50;1.00;;;;;;2276459;61;1067;-87
2024/01/01 08:25:04;299431.00;1.00;516.94;10991.00;0.04;19.67;;;;;9.70;1.00;;;;;;2276254;61;1020;-87
2024/01/01 08:27:31;188522.00;0.63;326.16;0.00;0.00;0.62;;;;;9.40;1.00;;;;;;2276205;61;1924;-87
2024/01/01 08:29:58;359847.00;1.20;620.79;31738.00;0.11;55.59;;;;;9.30;1.00;;;;;;2276431;61;1377;-88
2024/01/01 08:32:25;99316.00;0.33;172.39;0.00;0.00;0.62;;;;;9.80;1.00;;;;;;2276299;61;1506;-90
2024/01/01 08:34:52;118814.00;0.40;206.04;0.00;0.00;0.62;;;;;9.90;1.00;;;;;;2286180;55;3837;-88
2024/01/01 08:37:20;288887.00;0.96;498.82;0.00;0.00;0.62;;;;;9.70;1.00;;;;;;2276322;61;973;-89
2024/01/01 08:39:47;237505.00;0.79;410.46;0.00;0.00;0.62;;;;;9.50;1.00;;;;;;2276255;61;1385;-89
2024/01/01 08:42:14;110162.00;0.37;191.11;0.00;0.00;0.62;;;;;9.60;1.00;;;;;;2276178;61;1008;-89
2024/01/01 08:44:41;67719.00;0.23;117.82;0.00;0.00;0.62;;;;;9.70;1.00;;;;;;2276310;61;1239;-87
2024/01/01 08:47:08;85313.00;0.28;148.21;0.00;0.00;0.62;;;;;9.40;1.00;;;;;;2276185;61;1992;-89
2024/01/01 08:52:09;440048.00;1.47;758.67;0.00;0.00;0.62;;;;;9.10;1.00;;;;;;2295234;55;3677;-89
2024/01/01 08:54:39;183187.00;0.61;316.98;0.00;0.00;0.62;;;;;9.10;1.00;;;;;;2276323;61;995;-87
2024/01/01 08:57:06;245592.00;0.82;424.37;0.00;0.00;0.62;;;;;9.10;1.00;;;;;;2276348;61;971;-88
2024/01/01 08:59:33;58084.00;0.19;101.16;0.00;0.00;0.62;;;;;8.80;1.00;;;;;;2276318;61;1273;-89
2024/01/01 09:02:00;99878.00;0.33;173.36;0.00;0.00;0.62;;;;;8.90;1.00;;;;;;2276118;61;1072;-88
2024/01/01 09:04:27;167125.00;0.56;289.31;0.00;0.00;0.62;;;;;8.90;1.00;;;;;;2276316;61;1044;-88
2024/01/01 09:06:54;174104.00;0.58;301.34;0.00;0.00;0.62;;;;;9.50;1.00;;;;;;2276155;61;2006;-88
2024/01/01 09:09:22;299497.00;1.00;517.06;11139.00;0.04;19.92;;;;;9.30;1.00;;;;;;2276111;61;1375;-89
2024/01/01 09:14:20;462868.00;1.54;797.92;30512.00;0.10;53.47;;;;;9.50;1.00;;;;;;2281907;61;1427;-91
2024/01/01 09:16:47;269960.00;0.90;466.28;0.00;0.00;0.62;;;;;9.40;1.00;;;;;;2280143;61;1016;-89
2024/01/01 09:19:16;156651.00;0.52;271.27;0.00;0.00;0.62;;;;;9.60;1.00;;;;;;2278488;61;1682;-88
2024/01/01 09:21:43;289947.00;0.97;500.64;0.00;0.00;0.62;;;;;9.90;1.00;;;;;;2276139;61;1556;-87
2024/01/01 09:24:10;166919.00;0.56;288.96;0.00;0.00;0.62;;;;;9.90;1.00;;;;;;2276091;61;1124;-88
2024/01/01 09:26:40;152727.00;0.51;264.51;0.00;0.00;0.62;;;;;9.60;1.00;;;;;;2276031;61;2016;-89
2024/01/01 09:29:07;430774.00;1.44;742.72;0.00;0.00;0.62;;;;;9.60;1.00;;;;;;2276110;61;1296;-88
2024/01/01 09:31:37;15372.00;0.05;27.25;0.00;0.00;0.62;;;;;9.90;1.00;;;;;;2276201;61;1037;-88
2024/01/01 09:34:06;2148.00;0.01;4.34;0.00;0.00;0.62;;;;;9.90;1.00;;;;;;2276176;61;1114;-89
2024/01/01 09:39:02;313942.00;1.05;541.89;0.00;0.00;0.62;;;;;10.50;1.00;;;;;;2280651;61;1433;-88
2024/01/01 09:41:30;98774.00;0.33;171.46;0.00;0.00;0.62;;;;;10.80;1.00;;;;;;2276102;61;998;-87
2024/01/01 09:44:01;134082.00;0.45;232.37;0.00;0.00;0.62;;;;;11.20;1.00;;;;;;2276080;61;1537;-89
2024/01/01 09:46:32;5462.00;0.02;10.09;0.00;0.00;0.62;;;;;11.00;1.00;;;;;;2276170;61;1994;-88
2024/01/01 09:49:02;65634.00;0.22;114.22;0.00;0.00;0.62;;;;;10.80;1.00;;;;;;2276143;61;1380;-86
2024/01/01 09:51:29;132646.00;0.44;229.89;0.00;0.00;0.62;;;;;10.10;1.00;;;;;;2276053;61;1167;-87
2024/01/01 09:53:56;310336.00;1.03;535.69;49905.00;0.17;87.02;;;;;9.70;1.00;;;;;;2296617;40;3779;-89
2024/01/01 09:56:23;143343.00;0.48;248.33;0.00;0.00;0.62;;;;;9.60;1.00;;;;;;2268074;61;1617;-87
2024/01/01 09:58:50;218040.00;0.73;376.97;31002.00;0.10;54.32;;;;;9.70;1.00;;;;;;2268477;61;1290;-90
2024/01/01 10:01:19;105665.00;0.35;183.35;0.00;0.00;0.62;;;;;9.70;1.00;;;;;;2272068;61;998;-89
2024/01/01 10:04:06;8203.00;0.03;14.84;0.00;0.00;0.62;;;;;9.40;1.00;;;;;;2271857;61;1709;-89
2024/01/01 10:09:08;517165.00;1.72;891.38;0.00;0.00;0.62;;;;;9.60;1.00;;;;;;1570717;40;3454;-87
2024/01/01 10:11:38;58781.00;0.20;102.37;0.00;0.00;0.62;;;;;9.60;1.00;;;;;;2278099;55;3741;-88
2024/01/01 10:14:07;33002.00;0.11;57.78;0.00;0.00;0.62;;;;;9.60;1.00;;;;;;2276015;61;1573;-89
2024/01/01 10:16:35;17049.00;0.06;30.16;0.00;0.00;0.62;;;;;9.70;1.00;;;;;;2275968;61;1026;-88
2024/01/01 10:19:04;38867.00;0.13;67.93;0.00;0.00;0.62;;;;;9.70;1.00;;;;;;2276022;61;1951;-88
2024/01/01 10:21:32;46289.00;0.15;80.77;0.00;0.00;0.62;;;;;10.20;1.00;;;;;;2286242;40;3651;-85
2024/01/01 10:24:00;29521.00;0.10;51.75;0.00;0.00;0.62;;;;;10.30;1.00;;;;;;2274603;61;1025;-87
2024/01/01 10:28:55;78962.00;0.26;137.24;0.00;0.00;0.62;;;;;10.10;1.00;;;;;;2276482;61;1402;-89
2024/01/01 10:31:22;33711.00;0.11;59.01;0.00;0.00;0.62;;;;;9.90;1.00;;;;;;2271968;61;1103;-88
2024/01/01 10:33:50;258275.00;0.86;446.18;13581.00;0.05;24.15;;;;;9.80;1.00;;;;;;2272699;61;911;-89
2024/01/01 10:36:19;71600.00;0.24;124.53;0.00;0.00;0.62;;;;;9.80;1.00;;;;;;2272640;61;988;-87
2024/01/01 10:38:48;52501.00;0.18;91.51;0.00;0.00;0.62;;;;;9.80;1.00;;;;;;2272611;61;2120;-89
2024/01/01 10:41:17;4598.00;0.02;8.59;0.00;0.00;0.62;;;;;10.10;1.00;;;;;;2272598;61;1034;-89
2024/01/01 10:43:46;41083.00;0.14;71.76;0.00;0.00;0.62;;;;;10.00;1.00;;;;;;2272733;61;1136;-87
2024/01/01 10:46:14;16158.00;0.05;28.62;0.00;0.00;0.62;;;;;10.10;1.00;;;;;;2272585;61;1986;-87
2024/01/01 10:48:44;46083.00;0.15;80.41;0.00;0.00;0.62;;;;;10.40;1.00;;;;;;2272599;61;1414;-89
2024/01/01 10:51:42;51573.00;0.17;89.91;0.00;0.00;0.62;;;;;10.50;1.00;;;;;;2272589;61;1659;-89
2024/01/01 10:56:49;212578.00;0.71;367.57;0.00;0.00;0.62;;;;;11.20;1.00;;;;;;2292139;40;3652;-87
2024/01/01 10:59:20;148872.00;0.50;257.86;34315.00;0.11;60.05;;;;;11.40;1.00;;;;;;2276756;61;1423;-86
2024/01/01 11:01:50;140430.00;0.47;243.31;0.00;0.00;0.62;;;;;11.30;1.00;;;;;;2276649;61;1102;-86
2024/01/01 11:06:46;304791.00;1.02;526.16;0.00;0.00;0.62;;;;;11.20;1.00;;;;;;2282760;61;2022;-87
2024/01/01 11:09:33;268875.00;0.90;464.41;26594.00;0.09;46.69;;;;;11.00;1.00;;;;;;2279040;61;1570;-88
2024/01/01 11:12:02;18323.00;0.06;32.37;0.00;0.00;0.62;;;;;11.00;1.00;;;;;;2276681;61;2188;-87
2024/01/01 11:14:31;21791.00;0.07;38.37;0.00;0.00;0.62;;;;;10.80;1.00;;;;;;2276598;61;976;-90
2024/01/01 11:19:38;459255.00;1.53;791.70;0.00;0.00;0.62;;;;;11.10;1.00;;;;;;2278770;61;1344;-86
2024/01/01 11:22:31;57299.00;0.19;99.81;0.00;0.00;0.62;;;;;10.90;1.00;;;;;;2276612;61;1011;-88
2024/01/01 11:25:03;294716.00;0.98;508.84;26860.00;0.09;47.15;;;;;11.00;1.00;;;;;;2276610;61;971;-87
2024/01/01 11:27:31;137857.00;0.46;238.88;0.00;0.00;0.62;;;;;10.70;1.00;;;;;;2276539;61;2004;-89
2024/01/01 11:30:03;127263.00;0.42;220.61;0.00;0.00;0.62;;;;;10.80;1.00;;;;;;2276703;61;1349;-86
2024/01/01 11:32:32;170667.00;0.57;295.42;0.00;0.00;0.62;;;;;10.80;1.00;;;;;;2276639;61;910;-87
2024/01/01 11:35:05;292096.00;0.97;504.33;8336.00;0.03;15.07;;;;;10.80;1.00;;;;;;2276659;61;940;-86
2024/01/01 11:37:33;82949.00;0.28;144.13;0.00;0.00;0.62;;;;;11.20;1.00;;;;;;2276566;61;2348;-88
2024/01/01 11:40:00;334157.00;1.11;576.63;0.00;0.00;0.62;;;;;11.10;1.00;;;;;;2276491;61;1564;-88
2024/01/01 11:42:27;83931.00;0.28;145.83;0.00;0.00;0.62;;;;;11.10;1.00;;;;;;2276472;61;1674;-87
2024/01/01 11:45:09;601999.00;2.01;1037.67;154745.00;0.52;267.98;;;;;11.10;1.00;;;;;;2276315;61;1073;-88
2024/01/01 11:47:36;132243.00;0.44;229.20;0.00;0.00;0.62;;;;;11.50;1.00;;;;;;2276564;61;1918;-88
2024/01/01 11:50:05;310719.00;1.04;536.35;0.00;0.00;0.62;;;;;11.20;1.00;;;;;;2276526;61;1383;-88
2024/01/01 11:52:33;568117.00;1.89;979.20;55645.00;0.19;96.95;;;;;11.00;1.00;;;;;;2276416;61;1051;-88
2024/01/01 11:55:00;253837.00;0.85;438.55;0.00;0.00;0.62;;;;;10.90;1.00;;;;;;2276553;61;995;-87
2024/01/01 11:57:27;150537.00;0.50;260.73;0.00;0.00;0.62;;;;;11.40;1.00;;;;;;2276186;61;1619;-88
2024/01/01 11:59:56;12075.00;0.04;21.54;0.00;0.00;0.62;;;;;11.20;1.00;;;;;;2275989;61;1257;-86
2024/01/01 12:02:24;166142.00;0.55;287.62;0.00;0.00;0.62;;;;;11.30;1.00;;;;;;2276479;61;1102;-87
2024/01/01 12:04:53;37217.00;0.12;65.07;0.00;0.00;0.62;;;;;11.40;1.00;;;;;;2276486;61;1044;-86
2024/01/01 12:07:27;258953.00;0.86;447.35;48900.00;0.16;85.28;;;;;11.60;1.00;;;;;;2276433;61;2006;-86
2024/01/01 12:10:06;402144.00;1.34;693.49;0.00;0.00;0.62;;;;;11.90;1.00;;;;;;2276459;61;1371;-86
2024/01/01 12:12:33;98917.00;0.33;171.70;15236.00;0.05;27.02;;;;;11.70;1.00;;;;;;2276437;61;1727;-87
2024/01/01 12:15:10;100516.00;0.34;174.46;0.00;0.00;0.62;;;;;11.20;1.00;;;;;;2276480;61;1044;-87
2024/01/01 12:17:42;51909.00;0.17;90.49;0.00;0.00;0.62;;;;;11.10;1.00;;;;;;2276444;61;927;-87
2024/01/01 12:20:10;156089.00;0.52;270.30;0.00;0.00;0.62;;;;;11.30;1.00;;;;;;2276384;61;1358;-87
2024/01/01 12:22:38;135942.00;0.45;235.57;0.00;0.00;0.62;;;;;11.40;1.00;;;;;;2276358;61;1000;-86
2024/01/01 12:25:08;32513.00;0.11;56.93;0.00;0.00;0.62;;;;;11.50;1.00;;;;;;2276342;61;1057;-85
2024/01/01 12:27:34;219924.00;0.73;380.21;33798.00;0.11;59.16;;;;;11.50;1.00;;;;;;2276307;61;1912;-88
2024/01/01 12:30:03;165078.00;0.55;285.79;21034.00;0.07;37.06;;;;;11.60;1.00;;;;;;2276218;61;1307;-86
2024/01/01 12:32:30;185330.00;0.62;320.67;30549.00;0.10;53.53;;;;;11.70;1.00;;;;;;2276350;61;1763;-87
2024/01/01 12:34:57;76775.00;0.26;133.47;0.00;0.00;0.62;;;;;11.60;1.00;;;;;;2278060;55;3741;-86
2024/01/01 12:37:25;94760.00;0.32;164.53;0.00;0.00;0.62;;;;;11.60;1.00;;;;;;2276309;61;1443;-89